createdAt,value
2022-12-18T00:01:00.724Z,60.01
2022-12-18T00:03:28.120Z,60.25
2022-12-18T00:05:59.022Z,60.64
2022-12-18T00:08:25.833Z,60.06
2022-12-18T00:10:52.695Z,59.88
2022-12-18T00:13:21.089Z,60.08
2022-12-18T00:15:47.662Z,60.17
2022-12-18T00:18:18.937Z,60.28
2022-12-18T00:20:47.644Z,60.02
2022-12-18T00:23:14.137Z,60.33
2022-12-18T00:25:41.489Z,59.88
2022-12-18T00:28:08.032Z,60.04
2022-12-18T00:30:35.985Z,60.05
2022-12-18T00:33:04.805Z,59.90
2022-12-18T00:35:32.644Z,59.81
2022-12-18T00:37:59.216Z,59.43
2022-12-18T00:40:25.696Z,59.30
2022-12-18T00:42:53.673Z,59.26
2022-12-18T00:45:20.166Z,59.32
2022-12-18T00:47:48.135Z,59.57
2022-12-18T00:50:14.772Z,59.69
2022-12-18T00:52:41.665Z,59.26
2022-12-18T00:55:08.445Z,59.37
2022-12-18T00:57:36.317Z,59.13
2022-12-18T01:00:03.024Z,59.12
2022-12-18T01:02:30.656Z,59.33
2022-12-18T01:04:58.692Z,58.99
2022-12-18T01:07:29.383Z,59.00
2022-12-18T01:09:55.856Z,58.75
2022-12-18T01:12:24.215Z,58.89
2022-12-18T01:14:50.728Z,59.35
2022-12-18T01:17:17.811Z,59.74
2022-12-18T01:19:46.857Z,59.03
2022-12-18T01:22:19.052Z,59.85
2022-12-18T01:24:45.846Z,60.00
2022-12-18T01:27:12.827Z,60.08
2022-12-18T01:29:42.771Z,60.37
2022-12-18T01:32:12.627Z,60.20
2022-12-18T01:34:39.596Z,59.93
2022-12-18T01:37:06.372Z,59.82
2022-12-18T01:39:37.424Z,60.19
2022-12-18T01:42:16.765Z,59.79
2022-12-18T01:45:02.559Z,59.92
2022-12-18T01:47:34.095Z,59.82
2022-12-18T01:50:03.182Z,60.21
2022-12-18T01:52:35.650Z,60.29
2022-12-18T01:55:08.498Z,60.10
2022-12-18T01:57:36.349Z,60.17
2022-12-18T02:00:09.095Z,60.16
2022-12-18T02:02:37.194Z,60.61
2022-12-18T02:05:04.630Z,60.57
2022-12-18T02:07:44.924Z,60.83
2022-12-18T02:10:20.876Z,60.93
2022-12-18T02:12:57.629Z,60.50
2022-12-18T02:15:32.313Z,60.71
2022-12-18T02:18:10.114Z,60.98
2022-12-18T02:20:55.648Z,60.79
2022-12-18T02:23:41.795Z,60.33
2022-12-18T02:26:34.742Z,60.80
2022-12-18T02:29:06.046Z,60.79
2022-12-18T02:34:10.058Z,60.80
2022-12-18T02:36:41.079Z,60.83
2022-12-18T02:39:14.815Z,61.05
2022-12-18T02:41:44.081Z,60.68
2022-12-18T02:44:12.381Z,60.84
2022-12-18T02:46:41.772Z,60.82
2022-12-18T02:49:20.436Z,60.89
2022-12-18T02:51:54.125Z,60.84
2022-12-18T02:54:35.671Z,60.68
2022-12-18T02:57:10.754Z,60.66
2022-12-18T02:59:46.442Z,60.97
2022-12-18T03:02:22.530Z,60.81
2022-12-18T03:04:57.823Z,60.94
2022-12-18T03:07:29.175Z,60.96
2022-12-18T03:09:57.335Z,60.71
2022-12-18T03:12:32.184Z,60.50
2022-12-18T03:15:05.362Z,60.59
2022-12-18T03:17:35.065Z,59.91
2022-12-18T03:20:10.703Z,60.02
2022-12-18T03:22:41.157Z,59.88
2022-12-18T03:25:12.544Z,60.22
2022-12-18T03:27:47.215Z,60.14
2022-12-18T03:30:16.707Z,59.86
2022-12-18T03:32:51.045Z,59.65
2022-12-18T03:35:27.463Z,59.95
2022-12-18T03:37:57.019Z,59.93
2022-12-18T03:40:31.198Z,59.62
2022-12-18T03:43:11.402Z,59.86
2022-12-18T03:45:41.839Z,59.80
2022-12-18T03:48:14.005Z,59.42
2022-12-18T03:50:49.642Z,59.17
2022-12-18T03:53:26.956Z,59.46
2022-12-18T03:55:59.299Z,59.10
2022-12-18T03:58:30.870Z,59.19
2022-12-18T04:01:02.633Z,59.65
2022-12-18T04:03:37.888Z,60.09
2022-12-18T04:06:06.647Z,60.06
2022-12-18T04:08:35.054Z,59.77
2022-12-18T04:11:02.276Z,59.59
2022-12-18T04:13:34.997Z,59.90
2022-12-18T04:16:02.396Z,59.53
2022-12-18T04:18:28.965Z,59.43
2022-12-18T04:20:56.771Z,59.41
2022-12-18T04:23:23.378Z,59.39
2022-12-18T04:25:50.258Z,59.10
2022-12-18T04:28:18.830Z,59.67
2022-12-18T04:30:50.120Z,59.37
2022-12-18T04:33:19.840Z,59.41
2022-12-18T04:35:46.554Z,59.84
2022-12-18T04:38:13.502Z,59.28
2022-12-18T04:40:40.101Z,59.54
2022-12-18T04:43:11.985Z,59.44
2022-12-18T04:45:39.386Z,59.10
2022-12-18T04:48:09.477Z,59.50
2022-12-18T04:50:36.598Z,59.53
2022-12-18T04:53:05.045Z,59.46
2022-12-18T04:55:31.550Z,59.03
2022-12-18T04:57:58.029Z,59.51
2022-12-18T05:00:28.705Z,59.10
2022-12-18T05:02:55.393Z,59.11
2022-12-18T05:05:23.543Z,58.87
2022-12-18T05:07:53.899Z,58.77
2022-12-18T05:10:20.605Z,58.73
2022-12-18T05:12:47.518Z,58.83
2022-12-18T05:15:18.110Z,58.55
2022-12-18T05:17:44.966Z,58.84
2022-12-18T05:20:16.012Z,58.89
2022-12-18T05:22:46.254Z,58.72
2022-12-18T05:25:16.637Z,59.25
2022-12-18T05:27:45.031Z,58.83
2022-12-18T05:30:13.042Z,59.14
2022-12-18T05:32:39.917Z,58.35
2022-12-18T05:35:09.621Z,58.18
2022-12-18T05:37:42.714Z,57.97
2022-12-18T05:40:12.887Z,57.61
2022-12-18T05:42:39.532Z,57.51
2022-12-18T05:45:08.119Z,57.92
2022-12-18T05:47:35.839Z,57.84
2022-12-18T05:50:05.286Z,57.39
2022-12-18T05:52:31.907Z,57.23
2022-12-18T05:55:00.696Z,57.44
2022-12-18T05:57:30.434Z,57.38
2022-12-18T05:59:57.000Z,56.86
2022-12-18T06:02:26.112Z,56.98
2022-12-18T06:04:52.806Z,57.24
2022-12-18T06:07:22.331Z,57.46
2022-12-18T06:09:48.754Z,57.52
2022-12-18T06:12:16.983Z,57.59
2022-12-18T06:14:45.125Z,57.37
2022-12-18T06:17:11.746Z,57.77
2022-12-18T06:19:39.276Z,57.37
2022-12-18T06:24:52.619Z,57.32
2022-12-18T06:27:19.669Z,57.38
2022-12-18T06:29:47.591Z,57.80
2022-12-18T06:32:15.791Z,57.33
2022-12-18T06:34:59.233Z,57.23
2022-12-18T06:37:25.966Z,57.71
2022-12-18T06:39:55.095Z,58.00
2022-12-18T06:42:24.924Z,57.09
2022-12-18T06:44:52.821Z,57.23
2022-12-18T06:47:19.684Z,57.12
2022-12-18T06:49:46.362Z,56.91
2022-12-18T06:52:19.114Z,56.98
2022-12-18T06:54:45.769Z,57.10
2022-12-18T06:57:12.517Z,56.63
2022-12-18T06:59:39.141Z,57.11
2022-12-18T07:02:07.517Z,56.71
2022-12-18T07:04:34.086Z,56.21
2022-12-18T07:07:00.606Z,56.50
2022-12-18T07:09:29.848Z,56.67
2022-12-18T07:11:56.320Z,55.54
2022-12-18T07:14:23.039Z,55.48
2022-12-18T07:16:49.613Z,55.02
2022-12-18T07:19:17.469Z,55.01
2022-12-18T07:21:44.089Z,54.76
2022-12-18T07:24:10.591Z,55.06
2022-12-18T07:26:37.105Z,55.24
2022-12-18T07:29:04.471Z,54.89
2022-12-18T07:31:31.130Z,54.85
2022-12-18T07:33:59.124Z,54.95
2022-12-18T07:36:28.357Z,54.78
2022-12-18T07:38:55.105Z,54.85
2022-12-18T07:41:21.894Z,55.01
2022-12-18T07:43:48.872Z,54.85
2022-12-18T07:46:16.626Z,54.67
2022-12-18T07:48:45.545Z,54.52
2022-12-18T07:51:16.812Z,54.31
2022-12-18T07:53:45.841Z,54.38
2022-12-18T07:56:30.968Z,54.37
2022-12-18T07:58:59.750Z,54.40
2022-12-18T08:01:26.902Z,54.14
2022-12-18T08:03:53.963Z,54.19
2022-12-18T08:06:23.887Z,54.12
2022-12-18T08:08:55.831Z,53.75
2022-12-18T08:11:27.260Z,53.69
2022-12-18T08:13:58.559Z,53.12
2022-12-18T08:16:25.847Z,52.49
2022-12-18T08:18:54.176Z,52.16
2022-12-18T08:21:23.216Z,51.76
2022-12-18T08:23:51.291Z,51.71
2022-12-18T08:26:21.007Z,52.02
2022-12-18T08:28:50.835Z,52.29
2022-12-18T08:31:17.486Z,51.08
2022-12-18T08:33:46.414Z,50.59
2022-12-18T08:36:13.511Z,50.29
2022-12-18T08:38:40.040Z,50.57
2022-12-18T08:41:09.652Z,50.01
2022-12-18T08:43:38.175Z,49.99
2022-12-18T08:46:05.523Z,49.69
2022-12-18T08:48:32.043Z,49.86
2022-12-18T08:50:59.791Z,49.45
2022-12-18T08:53:29.248Z,49.63
2022-12-18T08:55:59.280Z,49.83
2022-12-18T08:58:25.815Z,49.56
2022-12-18T09:01:01.114Z,49.24
2022-12-18T09:03:27.655Z,48.88
2022-12-18T09:05:54.365Z,48.56
2022-12-18T09:08:20.924Z,48.82
2022-12-18T09:10:49.864Z,48.15
2022-12-18T09:13:17.493Z,48.06
2022-12-18T09:15:44.850Z,47.57
2022-12-18T09:18:13.669Z,47.53
2022-12-18T09:20:40.235Z,47.54
2022-12-18T09:23:07.579Z,46.97
2022-12-18T09:25:34.634Z,47.12
2022-12-18T09:28:01.392Z,47.16
2022-12-18T09:30:28.503Z,46.41
2022-12-18T09:32:55.195Z,46.49
2022-12-18T09:35:23.039Z,46.77
2022-12-18T09:37:50.532Z,46.58
2022-12-18T09:40:20.423Z,46.20
2022-12-18T09:42:52.958Z,46.51
2022-12-18T09:45:19.990Z,45.96
2022-12-18T09:47:49.284Z,46.01
2022-12-18T09:50:26.564Z,45.58
2022-12-18T09:52:57.898Z,45.45
2022-12-18T09:55:35.168Z,45.30
2022-12-18T09:58:08.652Z,45.42
2022-12-18T10:00:35.701Z,45.24
2022-12-18T10:03:09.606Z,44.84
2022-12-18T10:05:44.021Z,45.12
2022-12-18T10:08:16.924Z,44.78
2022-12-18T10:10:49.583Z,44.69
2022-12-18T10:13:25.633Z,44.89
2022-12-18T10:16:03.406Z,45.18
2022-12-18T10:18:45.430Z,44.88
2022-12-18T10:21:20.249Z,44.82
2022-12-18T10:23:58.690Z,44.46
2022-12-18T10:26:26.052Z,44.31
2022-12-18T10:28:54.345Z,44.63
2022-12-18T10:31:24.964Z,44.61
2022-12-18T10:33:53.620Z,44.62
2022-12-18T10:36:23.857Z,44.95
2022-12-18T10:38:50.947Z,44.56
2022-12-18T10:41:27.517Z,44.57
2022-12-18T10:44:13.395Z,44.73
2022-12-18T10:46:40.144Z,44.05
2022-12-18T10:49:19.641Z,43.94
2022-12-18T10:51:48.060Z,44.10
2022-12-18T10:54:17.096Z,43.53
2022-12-18T10:56:44.463Z,44.16
2022-12-18T10:59:14.411Z,44.81
2022-12-18T11:01:50.930Z,44.70
2022-12-18T11:04:21.343Z,44.67
2022-12-18T11:06:57.715Z,44.16
2022-12-18T11:09:28.335Z,44.43
2022-12-18T11:11:57.365Z,44.31
2022-12-18T11:14:26.074Z,44.16
2022-12-18T11:19:42.538Z,43.45
2022-12-18T11:22:21.652Z,42.96
2022-12-18T11:25:29.521Z,43.68
2022-12-18T11:27:48.194Z,43.33
2022-12-18T11:30:24.334Z,44.24
2022-12-18T11:32:54.021Z,43.94
2022-12-18T11:35:26.288Z,43.41
2022-12-18T11:38:03.940Z,43.52
2022-12-18T11:40:40.855Z,43.67
2022-12-18T11:43:12.840Z,43.52
2022-12-18T11:45:46.943Z,43.67
2022-12-18T11:48:19.389Z,43.84
2022-12-18T11:50:50.813Z,43.99
2022-12-18T11:53:19.144Z,44.02
2022-12-18T12:26:46.518Z,44.37
2022-12-18T12:29:31.252Z,44.69
2022-12-18T12:32:23.491Z,44.41
2022-12-18T12:35:02.587Z,44.61
2022-12-18T12:37:47.234Z,45.24
2022-12-18T12:40:51.193Z,44.64
2022-12-18T12:43:36.924Z,44.92
2022-12-18T12:46:07.883Z,44.70
2022-12-18T12:48:44.243Z,45.26
2022-12-18T12:51:35.601Z,45.11
2022-12-18T12:54:05.227Z,45.62
2022-12-18T12:56:41.008Z,45.25
2022-12-18T12:59:20.274Z,46.14
2022-12-18T13:01:58.511Z,46.55
2022-12-18T13:04:36.334Z,46.15
2022-12-18T13:07:13.312Z,46.80
2022-12-18T13:10:23.499Z,46.78
2022-12-18T13:12:55.980Z,46.44
2022-12-18T13:15:25.131Z,47.19
2022-12-18T13:18:05.569Z,46.91
2022-12-18T13:20:38.343Z,47.11
2022-12-18T13:23:21.240Z,47.92
2022-12-18T13:25:51.058Z,47.37
2022-12-18T13:28:21.522Z,47.52
2022-12-18T13:30:58.640Z,47.44
2022-12-18T13:36:30.547Z,47.62
2022-12-18T13:39:35.316Z,47.28
2022-12-18T13:42:38.141Z,47.29
2022-12-18T13:45:47.339Z,46.85
2022-12-18T13:48:19.128Z,47.07
2022-12-18T13:51:10.828Z,46.87
2022-12-18T13:53:43.204Z,47.02
2022-12-18T13:56:10.229Z,47.17
2022-12-18T13:58:45.811Z,46.85
2022-12-18T14:01:23.345Z,47.44
2022-12-18T14:04:10.306Z,46.91
2022-12-18T14:06:37.400Z,47.06
2022-12-18T14:09:04.471Z,47.26
2022-12-18T14:11:31.638Z,46.92
2022-12-18T14:14:00.139Z,46.34
2022-12-18T14:16:28.560Z,46.32
2022-12-18T14:19:01.934Z,47.63
2022-12-18T14:21:34.262Z,47.33
2022-12-18T14:24:13.905Z,47.52
2022-12-18T14:26:41.492Z,47.74
2022-12-18T14:29:27.106Z,47.71
2022-12-18T14:32:13.321Z,48.10
2022-12-18T14:34:43.766Z,47.56
2022-12-18T14:37:11.751Z,48.12
2022-12-18T14:39:38.346Z,48.12
2022-12-18T14:42:05.406Z,47.48
2022-12-18T14:48:23.426Z,47.86
2022-12-18T14:50:59.895Z,47.99
2022-12-18T14:53:35.023Z,47.60
2022-12-18T14:56:02.288Z,46.96
2022-12-18T14:58:29.121Z,47.11
2022-12-18T15:00:56.160Z,46.98
2022-12-18T15:03:24.818Z,47.39
2022-12-18T15:05:52.733Z,46.82
2022-12-18T15:08:35.821Z,46.98
2022-12-18T15:11:02.928Z,46.99
2022-12-18T15:17:20.403Z,47.80
2022-12-18T15:20:20.807Z,48.17
2022-12-18T15:23:40.207Z,48.06
2022-12-18T15:26:14.858Z,47.95
2022-12-18T15:29:23.882Z,48.00
2022-12-18T15:35:31.854Z,48.67
2022-12-18T15:38:16.026Z,49.36
2022-12-18T15:41:01.001Z,49.00
2022-12-18T15:46:37.245Z,49.24
2022-12-18T15:49:35.638Z,49.09
2022-12-18T15:52:04.300Z,49.25
2022-12-18T15:54:31.128Z,49.36
2022-12-18T15:56:57.708Z,49.46
2022-12-18T15:59:27.925Z,49.88
2022-12-18T16:01:54.581Z,50.11
2022-12-18T16:04:22.609Z,49.91
2022-12-18T16:09:35.839Z,50.02
2022-12-18T16:12:02.504Z,49.93
2022-12-18T16:14:34.141Z,50.58
2022-12-18T16:17:02.760Z,50.31
2022-12-18T16:19:29.964Z,50.13
2022-12-18T16:21:59.026Z,51.19
2022-12-18T16:24:27.971Z,51.42
2022-12-18T16:26:55.287Z,51.02
2022-12-18T16:29:25.099Z,51.26
2022-12-18T16:31:53.340Z,51.76
2022-12-18T16:34:26.821Z,52.11
2022-12-18T16:36:58.982Z,52.21
2022-12-18T16:39:30.010Z,52.73
2022-12-18T16:41:56.724Z,52.50
2022-12-18T16:44:24.724Z,53.24
2022-12-18T16:46:52.710Z,53.70
2022-12-18T16:49:20.229Z,53.32
2022-12-18T16:51:47.858Z,53.81
2022-12-18T16:54:18.870Z,53.96
2022-12-18T16:56:46.413Z,54.34
2022-12-18T16:59:13.278Z,54.03
2022-12-18T17:01:39.924Z,53.93
2022-12-18T17:04:09.018Z,54.63
2022-12-18T17:06:47.534Z,55.05
2022-12-18T17:09:15.442Z,55.79
2022-12-18T17:11:42.841Z,55.36
2022-12-18T17:14:11.045Z,55.95
2022-12-18T17:16:38.211Z,55.88
2022-12-18T17:19:12.237Z,56.07
2022-12-18T17:21:42.625Z,56.15
2022-12-18T17:24:09.715Z,56.58
2022-12-18T17:26:36.904Z,56.16
2022-12-18T17:29:05.245Z,56.69
2022-12-18T17:31:32.215Z,56.45
2022-12-18T17:34:06.913Z,56.74
2022-12-18T17:36:35.061Z,57.58
2022-12-18T17:39:10.154Z,56.75
2022-12-18T17:41:36.659Z,57.51
2022-12-18T17:44:05.664Z,57.22
2022-12-18T17:46:34.201Z,56.89
2022-12-18T17:49:02.374Z,57.27
2022-12-18T17:51:29.716Z,57.03
2022-12-18T17:53:57.718Z,57.00
2022-12-18T17:56:25.337Z,57.21
2022-12-18T17:58:52.276Z,58.05
2022-12-18T18:01:21.649Z,57.37
2022-12-18T18:03:51.747Z,57.09
2022-12-18T18:06:20.405Z,56.60
2022-12-18T18:08:47.320Z,57.28
2022-12-18T18:11:18.384Z,58.37
2022-12-18T18:13:46.879Z,57.96
2022-12-18T18:16:13.579Z,58.29
2022-12-18T18:18:40.193Z,57.87
2022-12-18T18:21:08.880Z,58.43
2022-12-18T18:23:39.109Z,58.41
2022-12-18T18:26:09.744Z,58.03
2022-12-18T18:28:38.010Z,57.54
2022-12-18T18:31:05.863Z,57.35
2022-12-18T18:33:33.416Z,57.75
2022-12-18T18:35:59.982Z,57.71
2022-12-18T18:38:29.866Z,58.20
2022-12-18T18:40:59.965Z,58.46
2022-12-18T18:43:27.593Z,58.32
2022-12-18T18:46:00.833Z,58.32
2022-12-18T18:48:41.754Z,58.53
2022-12-18T18:51:38.360Z,58.52
2022-12-18T18:54:24.727Z,58.49
2022-12-18T19:27:45.152Z,57.75
2022-12-18T19:30:14.244Z,57.52
2022-12-18T19:32:41.526Z,57.33
2022-12-18T19:35:09.024Z,56.77
2022-12-18T19:37:40.929Z,57.14
2022-12-18T19:40:12.327Z,56.79
2022-12-18T19:42:39.448Z,56.36
2022-12-18T19:45:08.939Z,56.94
2022-12-18T19:47:36.063Z,56.22
2022-12-18T19:50:02.901Z,56.18
2022-12-18T19:52:29.604Z,55.77
2022-12-18T19:54:56.213Z,55.48
2022-12-18T19:57:22.767Z,55.49
2022-12-18T19:59:49.537Z,55.63
2022-12-18T20:02:17.781Z,55.67
2022-12-18T20:04:44.643Z,55.56
2022-12-18T20:07:11.164Z,55.30
2022-12-18T20:09:39.138Z,55.91
2022-12-18T20:12:06.739Z,55.74
2022-12-18T20:14:33.425Z,55.40
2022-12-18T20:17:00.404Z,56.13
2022-12-18T20:19:28.712Z,55.54
2022-12-18T20:21:55.611Z,56.37
2022-12-18T20:24:22.134Z,56.33
2022-12-18T20:26:48.858Z,55.98
2022-12-18T20:29:16.036Z,55.94
2022-12-18T20:31:42.575Z,56.17
2022-12-18T20:34:10.059Z,56.82
2022-12-18T20:36:38.794Z,56.05
2022-12-18T20:39:07.605Z,56.65
2022-12-18T20:41:38.154Z,57.37
2022-12-18T20:44:23.271Z,57.50
2022-12-18T20:46:52.788Z,57.99
2022-12-18T20:49:19.544Z,57.91
2022-12-18T20:51:53.088Z,57.69
2022-12-18T20:54:20.119Z,57.79
2022-12-18T20:56:47.228Z,57.66
2022-12-18T20:59:14.896Z,57.81
2022-12-18T21:01:48.067Z,56.71
2022-12-18T21:04:16.042Z,57.80
2022-12-18T21:06:49.480Z,57.82
2022-12-18T21:09:20.242Z,57.68
2022-12-18T21:11:47.131Z,57.61
2022-12-18T21:14:16.705Z,57.52
2022-12-18T21:16:44.593Z,57.27
2022-12-18T21:19:11.966Z,56.49
2022-12-18T21:21:39.225Z,56.77
2022-12-18T21:24:06.959Z,56.49
2022-12-18T21:26:40.442Z,57.03
2022-12-18T21:29:15.938Z,56.66
2022-12-18T21:31:44.720Z,55.73
2022-12-18T21:34:15.737Z,56.48
2022-12-18T21:36:42.391Z,56.58
2022-12-18T21:39:10.253Z,56.39
2022-12-18T21:41:42.095Z,56.94
2022-12-18T21:44:12.253Z,57.07
2022-12-18T21:46:40.816Z,57.33
2022-12-18T21:49:09.729Z,57.77
2022-12-18T21:51:37.929Z,57.61
2022-12-18T21:54:05.103Z,58.20
2022-12-18T21:56:45.252Z,58.73
2022-12-18T21:59:14.658Z,58.49
2022-12-18T22:01:42.399Z,59.06
2022-12-18T22:04:12.162Z,59.09
2022-12-18T22:06:38.810Z,58.71
2022-12-18T22:09:05.433Z,59.79
2022-12-18T22:11:32.068Z,59.73
2022-12-18T22:14:03.352Z,60.47
2022-12-18T22:16:31.534Z,60.39
2022-12-18T22:19:00.279Z,60.66
2022-12-18T22:21:29.549Z,60.62
2022-12-18T22:23:58.032Z,60.86
2022-12-18T22:26:29.466Z,61.56
2022-12-18T22:28:58.040Z,62.26
2022-12-18T22:31:26.215Z,61.91
2022-12-18T22:33:53.041Z,61.90
2022-12-18T22:36:19.681Z,62.33
2022-12-18T22:38:51.812Z,62.38
2022-12-18T22:41:21.440Z,62.66
2022-12-18T22:43:48.336Z,62.56
2022-12-18T22:46:16.744Z,63.36
2022-12-18T22:48:44.708Z,63.58
2022-12-18T22:51:15.271Z,64.07
2022-12-18T22:53:42.139Z,63.45
2022-12-18T22:56:15.721Z,63.22
2022-12-18T22:58:49.027Z,64.23
2022-12-18T23:01:20.350Z,63.83
2022-12-18T23:03:51.476Z,63.69
2022-12-18T23:06:18.858Z,63.87
2022-12-18T23:08:46.279Z,63.91
2022-12-18T23:11:18.817Z,63.94
2022-12-18T23:13:46.468Z,64.19
2022-12-18T23:16:15.079Z,64.62
2022-12-18T23:18:42.509Z,64.61
2022-12-18T23:21:13.441Z,64.86
2022-12-18T23:23:41.376Z,64.69
2022-12-18T23:26:10.781Z,64.94
2022-12-18T23:28:40.883Z,64.83
2022-12-18T23:31:10.659Z,65.59
2022-12-18T23:33:38.506Z,65.24
2022-12-18T23:36:06.392Z,65.45
2022-12-18T23:38:40.757Z,65.52
2022-12-18T23:41:14.025Z,65.51
2022-12-18T23:43:43.946Z,65.47
2022-12-18T23:46:14.602Z,65.87
2022-12-18T23:48:42.546Z,65.76
2022-12-18T23:51:10.889Z,65.29
2022-12-18T23:53:38.951Z,65.07
2022-12-18T23:56:09.935Z,65.44
2022-12-18T23:58:38.069Z,65.15
